Time;durP1;ratioP1;P1;durP2;ratioP2;P2;SDS_P1;SDS_P2;PMS_P1;PMS_P2;Temp;Humidity;BMP_temperature;BMP_pressure;BME280_temperature;BME280_humidity;BME280_pressure;Samples;Min_cycle;Max_cycle;Signal;HPM_P1;HPM_P2
2022/03/15 00:01:28;;;;;;;3.10;1.38;;;20.60;60.80;;;;;;5001411;28;20373;-72
2022/03/15 00:03:55;;;;;;;12.98;2.45;;;20.50;61.00;;;;;;5006237;28;20034;-70
2022/03/15 00:06:21;;;;;;;15.18;2.90;;;20.50;61.30;;;;;;5008474;28;20392;-72
2022/03/15 00:08:48;;;;;;;12.75;2.42;;;20.50;62.00;;;;;;5005148;28;20022;-72
2022/03/15 00:11:15;;;;;;;5.63;1.63;;;20.50;62.40;;;;;;5004976;28;20487;-72
2022/03/15 00:13:41;;;;;;;10.40;1.95;;;20.50;61.90;;;;;;5006750;28;20420;-71
2022/03/15 00:16:08;;;;;;;2.10;1.48;;;20.50;61.50;;;;;;5004478;28;20509;-71
2022/03/15 00:18:35;;;;;;;7.60;1.50;;;20.40;61.20;;;;;;5005625;28;20022;-71
2022/03/15 00:21:04;;;;;;;6.13;1.95;;;20.40;61.00;;;;;;5009844;28;20404;-71
2022/03/15 00:23:34;;;;;;;5.97;1.08;;;20.40;60.80;;;;;;5003314;28;20083;-70
2022/03/15 00:26:00;;;;;;;8.80;1.95;;;20.40;60.90;;;;;;5005614;28;20133;-70
2022/03/15 00:28:28;;;;;;;11.30;1.75;;;20.40;61.00;;;;;;5006413;28;20107;-70
2022/03/15 00:30:54;;;;;;;10.77;1.77;;;20.40;61.90;;;;;;5011838;28;20038;-71
2022/03/15 00:33:21;;;;;;;9.90;1.50;;;20.40;62.50;;;;;;5001016;28;20095;-71
2022/03/15 00:35:47;;;;;;;8.75;1.75;;;20.40;62.80;;;;;;5003553;28;20037;-71
2022/03/15 00:38:14;;;;;;;4.20;1.73;;;20.40;62.80;;;;;;5005648;28;20112;-71
2022/03/15 00:40:40;;;;;;;5.20;1.77;;;20.40;62.90;;;;;;5007405;28;20014;-71
2022/03/15 00:43:07;;;;;;;7.60;1.83;;;20.40;62.80;;;;;;5006867;28;20025;-71
2022/03/15 00:45:34;;;;;;;4.38;1.60;;;20.40;62.60;;;;;;5007218;28;20040;-71
2022/03/15 00:48:00;;;;;;;4.25;1.75;;;20.40;62.40;;;;;;5004013;28;20025;-71
2022/03/15 00:50:33;;;;;;;3.92;1.27;;;20.40;62.10;;;;;;5004235;28;20029;-71
2022/03/15 00:53:00;;;;;;;4.50;1.35;;;20.30;62.00;;;;;;5006358;28;20034;-71
2022/03/15 00:55:27;;;;;;;3.40;1.38;;;20.30;62.20;;;;;;5003451;28;20046;-72
2022/03/15 00:57:53;;;;;;;5.82;1.40;;;20.30;62.40;;;;;;5005631;28;20033;-71
2022/03/15 01:00:22;;;;;;;7.40;1.63;;;20.40;62.30;;;;;;5006187;28;20385;-71
2022/03/15 01:02:49;;;;;;;6.85;1.65;;;20.30;61.90;;;;;;5004357;28;20026;-71
2022/03/15 01:05:16;;;;;;;3.00;1.05;;;20.30;61.40;;;;;;5006745;28;20021;-71
2022/03/15 01:07:43;;;;;;;8.10;1.48;;;20.30;61.20;;;;;;5008098;28;20107;-71
2022/03/15 01:10:10;;;;;;;8.55;1.92;;;20.30;61.70;;;;;;5006904;28;20026;-71
2022/03/15 01:12:36;;;;;;;4.07;1.85;;;20.30;61.10;;;;;;5002410;28;20026;-72
2022/03/15 01:15:06;;;;;;;5.30;1.60;;;20.30;61.40;;;;;;5006684;28;20037;-72
2022/03/15 01:17:34;;;;;;;7.03;1.08;;;20.30;61.40;;;;;;5000405;28;20048;-71
2022/03/15 01:20:02;;;;;;;3.47;1.08;;;20.30;61.60;;;;;;5006337;28;20041;-70
2022/03/15 01:22:29;;;;;;;5.70;1.52;;;20.20;61.30;;;;;;5006442;28;20060;-71
2022/03/15 01:24:56;;;;;;;11.07;1.45;;;20.30;61.30;;;;;;5004872;28;20076;-70
2022/03/15 01:27:22;;;;;;;5.82;1.25;;;20.20;61.20;;;;;;5005563;28;20161;-70
2022/03/15 01:29:49;;;;;;;7.38;1.20;;;20.30;61.10;;;;;;5005177;28;20037;-70
2022/03/15 01:32:16;;;;;;;3.28;1.10;;;20.20;61.00;;;;;;5003325;28;20046;-71
2022/03/15 01:34:43;;;;;;;9.40;1.52;;;20.20;60.70;;;;;;5004176;28;20065;-71
2022/03/15 01:37:09;;;;;;;3.35;0.88;;;20.20;60.70;;;;;;5009248;28;20026;-71
2022/03/15 01:39:37;;;;;;;4.10;0.93;;;20.20;60.90;;;;;;5003255;28;20108;-71
2022/03/15 01:42:04;;;;;;;5.70;1.10;;;20.20;61.00;;;;;;5005148;28;20034;-71
2022/03/15 01:44:33;;;;;;;4.47;0.98;;;20.20;61.00;;;;;;5005240;28;20072;-71
2022/03/15 01:47:00;;;;;;;3.53;1.33;;;20.20;61.20;;;;;;5006228;28;20029;-71
2022/03/15 01:49:26;;;;;;;9.32;1.80;;;20.20;61.30;;;;;;5004636;28;20028;-70
2022/03/15 01:51:53;;;;;;;6.47;1.77;;;20.20;61.20;;;;;;5002056;28;20026;-70
2022/03/15 01:54:20;;;;;;;5.30;1.10;;;20.20;61.20;;;;;;5005771;28;20750;-71
2022/03/15 01:56:47;;;;;;;12.38;1.38;;;20.20;61.20;;;;;;5003412;28;20112;-71
2022/03/15 01:59:15;;;;;;;9.00;1.20;;;20.20;61.20;;;;;;5008017;28;20464;-71
2022/03/15 02:01:43;;;;;;;8.93;1.60;;;20.20;61.30;;;;;;5002917;28;20085;-72
2022/03/15 02:04:11;;;;;;;11.05;1.13;;;20.20;61.30;;;;;;5004767;28;20022;-71
2022/03/15 02:06:41;;;;;;;11.85;2.28;;;20.20;61.20;;;;;;5008634;28;20045;-72
2022/03/15 02:09:13;;;;;;;7.65;1.95;;;20.20;61.60;;;;;;5003360;28;20449;-73
2022/03/15 02:11:41;;;;;;;6.32;1.75;;;20.20;61.40;;;;;;5002311;28;20026;-71
2022/03/15 02:14:07;;;;;;;4.78;1.25;;;20.20;61.20;;;;;;5006439;28;20037;-71
2022/03/15 02:16:34;;;;;;;1.90;0.80;;;20.10;60.80;;;;;;5004747;28;20026;-71
2022/03/15 02:19:02;;;;;;;2.38;0.60;;;20.10;60.70;;;;;;5005280;28;20037;-71
2022/03/15 02:21:29;;;;;;;6.28;0.70;;;20.10;60.70;;;;;;5003591;28;20029;-71
2022/03/15 02:23:56;;;;;;;2.88;1.00;;;20.10;60.60;;;;;;5002750;28;20018;-71
2022/03/15 02:26:22;;;;;;;4.05;1.20;;;20.00;60.60;;;;;;5004482;28;20064;-70
2022/03/15 02:28:49;;;;;;;1.40;0.75;;;20.00;60.70;;;;;;5006273;28;20041;-71
2022/03/15 02:31:16;;;;;;;9.13;0.93;;;20.00;60.80;;;;;;5005001;28;20093;-71
2022/03/15 02:33:42;;;;;;;3.53;0.85;;;20.00;60.80;;;;;;5007400;28;20121;-71
2022/03/15 02:36:09;;;;;;;5.22;1.13;;;20.00;60.70;;;;;;5006974;28;20041;-70
2022/03/15 02:38:36;;;;;;;3.75;1.58;;;20.00;61.00;;;;;;5009545;28;20516;-71
2022/03/15 02:41:02;;;;;;;10.60;1.83;;;20.00;61.20;;;;;;5003949;28;20500;-71
2022/03/15 02:43:29;;;;;;;13.88;1.30;;;20.00;61.60;;;;;;5007365;28;20026;-72
2022/03/15 02:45:56;;;;;;;4.10;1.10;;;20.00;61.90;;;;;;5008497;28;20046;-71
2022/03/15 02:48:23;;;;;;;5.32;1.08;;;20.00;61.90;;;;;;5011494;28;20052;-71
2022/03/15 02:50:49;;;;;;;5.00;1.77;;;20.00;61.90;;;;;;5005553;28;20050;-72
2022/03/15 02:53:16;;;;;;;5.43;1.73;;;19.90;62.10;;;;;;5007333;28;20021;-70
2022/03/15 02:55:44;;;;;;;4.10;1.30;;;19.90;62.10;;;;;;5003057;28;20044;-71
2022/03/15 02:58:11;;;;;;;11.13;1.55;;;20.00;62.10;;;;;;5005780;28;20108;-70
2022/03/15 03:00:38;;;;;;;5.78;1.42;;;19.90;62.20;;;;;;5004964;28;20026;-71
2022/03/15 03:03:04;;;;;;;5.72;2.00;;;19.90;62.30;;;;;;5009583;28;20205;-71
2022/03/15 03:05:31;;;;;;;6.15;2.42;;;19.90;62.30;;;;;;5008699;28;20010;-71
2022/03/15 03:07:57;;;;;;;4.97;1.38;;;19.90;62.40;;;;;;5008838;28;20109;-71
2022/03/15 03:10:24;;;;;;;8.73;1.30;;;19.90;62.80;;;;;;5010664;28;20022;-70
2022/03/15 03:12:50;;;;;;;3.92;1.02;;;19.90;62.70;;;;;;5003458;28;20033;-70
2022/03/15 03:15:20;;;;;;;3.70;1.00;;;19.90;62.80;;;;;;5005865;28;20105;-71
2022/03/15 03:17:46;;;;;;;1.75;1.17;;;19.90;62.80;;;;;;5005159;28;20387;-71
2022/03/15 03:20:19;;;;;;;4.85;1.23;;;19.80;62.70;;;;;;5011098;28;20018;-71
2022/03/15 03:22:54;;;;;;;5.38;1.42;;;19.80;62.70;;;;;;5005742;28;20023;-72
2022/03/15 03:25:20;;;;;;;6.15;1.33;;;19.80;62.70;;;;;;5008448;28;20556;-71
2022/03/15 03:27:47;;;;;;;7.35;2.95;;;19.80;62.80;;;;;;5009235;28;20436;-71
2022/03/15 03:30:15;;;;;;;9.50;1.40;;;19.80;62.60;;;;;;5005151;28;20057;-70
2022/03/15 03:32:41;;;;;;;7.18;1.45;;;19.80;62.20;;;;;;5006454;28;20069;-70
2022/03/15 03:35:08;;;;;;;5.28;1.60;;;19.70;61.80;;;;;;5005611;28;20026;-70
2022/03/15 03:37:35;;;;;;;6.63;1.58;;;19.70;61.70;;;;;;5009042;28;20036;-71
2022/03/15 03:40:07;;;;;;;8.77;1.88;;;19.70;61.70;;;;;;5006173;28;20485;-71
2022/03/15 03:42:37;;;;;;;5.93;1.45;;;19.70;61.90;;;;;;5007751;28;20026;-71
2022/03/15 03:45:05;;;;;;;2.65;1.00;;;19.60;62.00;;;;;;5005099;28;20439;-71
2022/03/15 03:47:31;;;;;;;3.10;1.52;;;19.60;62.10;;;;;;5003434;28;20018;-71
2022/03/15 03:49:58;;;;;;;6.13;1.20;;;19.60;62.20;;;;;;5005352;28;20108;-71
2022/03/15 03:52:24;;;;;;;9.70;1.95;;;19.60;62.30;;;;;;5007086;28;20127;-71
2022/03/15 03:54:51;;;;;;;6.75;1.27;;;19.60;62.50;;;;;;5004765;28;20072;-73
2022/03/15 03:57:17;;;;;;;11.02;2.45;;;19.60;62.40;;;;;;5005051;28;20132;-72
2022/03/15 03:59:44;;;;;;;8.40;1.52;;;19.60;62.50;;;;;;5008263;28;20492;-71
2022/03/15 04:02:10;;;;;;;18.85;7.80;;;19.60;63.20;;;;;;5005098;28;20091;-71
2022/03/15 04:04:36;;;;;;;75.68;60.13;;;19.50;63.70;;;;;;5006816;28;20046;-71
2022/03/15 04:07:11;;;;;;;39.35;31.45;;;19.60;63.30;;;;;;5007547;28;20030;-73
2022/03/15 04:09:39;;;;;;;20.17;12.02;;;19.50;63.00;;;;;;5004618;28;20036;-73
2022/03/15 04:12:06;;;;;;;36.00;7.28;;;19.50;63.10;;;;;;5004934;28;20076;-71
2022/03/15 04:14:36;;;;;;;25.42;4.22;;;19.50;63.70;;;;;;5005483;28;20034;-72
2022/03/15 04:17:04;;;;;;;13.07;2.47;;;19.50;63.30;;;;;;5002635;28;20022;-73
2022/03/15 04:19:31;;;;;;;9.50;3.05;;;19.50;63.30;;;;;;5007579;28;20151;-73
2022/03/15 04:21:57;;;;;;;9.07;2.30;;;19.50;63.30;;;;;;5005354;28;20056;-74
2022/03/15 04:24:24;;;;;;;6.05;1.85;;;19.50;63.30;;;;;;5008066;28;20084;-74
2022/03/15 04:26:51;;;;;;;6.45;1.73;;;19.50;63.30;;;;;;5005904;28;20049;-76
2022/03/15 04:29:17;;;;;;;9.45;5.00;;;19.40;63.30;;;;;;5008537;28;20507;-70
2022/03/15 04:31:44;;;;;;;15.85;9.63;;;19.40;63.30;;;;;;5001722;28;20027;-73
2022/03/15 04:34:10;;;;;;;23.30;8.77;;;19.40;63.60;;;;;;5007383;28;20044;-73
2022/03/15 04:36:37;;;;;;;22.85;5.57;;;19.40;63.60;;;;;;5006897;28;20057;-73
2022/03/15 04:39:06;;;;;;;9.35;2.80;;;19.40;63.70;;;;;;5007519;28;20026;-69
2022/03/15 04:41:33;;;;;;;4.97;2.03;;;19.40;63.60;;;;;;5005685;28;20038;-69
2022/03/15 04:43:59;;;;;;;5.40;1.77;;;19.40;63.50;;;;;;5006090;28;20367;-71
2022/03/15 04:46:26;;;;;;;1.95;1.00;;;19.40;63.40;;;;;;5005069;28;20476;-70
2022/03/15 04:48:53;;;;;;;6.57;1.63;;;19.40;63.50;;;;;;5005394;28;20533;-71
2022/03/15 04:51:20;;;;;;;4.18;1.30;;;19.40;63.50;;;;;;5005809;28;20120;-71
2022/03/15 04:53:48;;;;;;;11.18;3.08;;;19.30;63.30;;;;;;5002848;28;20022;-70
2022/03/15 04:56:15;;;;;;;8.93;2.42;;;19.30;63.30;;;;;;4999754;28;20044;-71
2022/03/15 04:58:42;;;;;;;5.28;1.25;;;19.30;63.30;;;;;;5004082;28;20028;-71
2022/03/15 05:01:08;;;;;;;10.13;1.92;;;19.30;63.30;;;;;;5002211;28;20014;-71
2022/03/15 05:03:35;;;;;;;16.15;3.70;;;19.30;63.50;;;;;;5007058;28;20084;-71
2022/03/15 05:06:03;;;;;;;11.40;2.50;;;19.30;63.60;;;;;;5006124;28;20032;-71
2022/03/15 05:08:29;;;;;;;5.80;1.55;;;19.30;63.60;;;;;;5002934;28;20038;-71
2022/03/15 05:11:09;;;;;;;3.75;1.40;;;19.20;63.30;;;;;;5007157;28;20113;-71
2022/03/15 05:13:46;;;;;;;7.75;1.90;;;19.20;63.20;;;;;;5005806;28;20385;-71
2022/03/15 05:16:18;;;;;;;9.65;1.88;;;19.20;63.30;;;;;;5003532;28;20822;-71
2022/03/15 05:18:47;;;;;;;8.48;1.73;;;19.20;64.00;;;;;;5003020;28;20558;-71
2022/03/15 05:21:17;;;;;;;5.50;1.63;;;19.20;64.00;;;;;;5007233;28;20022;-71
2022/03/15 05:23:45;;;;;;;3.33;1.10;;;19.20;63.80;;;;;;5002705;28;20022;-71
2022/03/15 05:26:12;;;;;;;5.13;1.52;;;19.20;63.60;;;;;;5005343;28;20512;-71
2022/03/15 05:28:39;;;;;;;3.90;1.88;;;19.10;63.60;;;;;;5004482;28;20061;-71
2022/03/15 05:31:06;;;;;;;6.75;2.22;;;19.20;64.00;;;;;;5002566;28;20014;-71
2022/03/15 05:33:33;;;;;;;11.45;1.70;;;19.20;64.20;;;;;;5002876;28;20030;-71
2022/03/15 05:36:00;;;;;;;3.65;1.60;;;19.10;64.30;;;;;;5004680;28;20038;-70
2022/03/15 05:38:27;;;;;;;5.50;2.15;;;19.20;64.60;;;;;;5003742;28;20096;-71
2022/03/15 05:40:54;;;;;;;5.05;1.95;;;19.20;64.70;;;;;;5008028;28;20024;-71
2022/03/15 05:43:22;;;;;;;11.45;2.67;;;19.20;64.80;;;;;;5005182;28;20100;-71
2022/03/15 05:45:50;;;;;;;6.70;1.65;;;19.20;65.50;;;;;;5001415;28;20026;-71
2022/03/15 05:48:18;;;;;;;6.00;1.70;;;19.20;64.80;;;;;;4999697;28;20420;-70
2022/03/15 05:50:45;;;;;;;7.60;2.65;;;19.20;64.80;;;;;;5005962;28;20393;-71
2022/03/15 05:53:11;;;;;;;5.85;1.95;;;19.20;64.90;;;;;;5004879;28;20030;-71
2022/03/15 05:55:38;;;;;;;5.60;1.88;;;19.20;65.10;;;;;;5002695;28;20076;-72
2022/03/15 05:58:05;;;;;;;6.55;2.20;;;19.20;65.10;;;;;;5003531;28;20022;-71
2022/03/15 06:00:34;;;;;;;11.05;2.55;;;19.20;65.10;;;;;;5003541;28;20504;-71
2022/03/15 06:03:01;;;;;;;10.63;2.13;;;19.20;65.10;;;;;;4999859;28;20042;-70
2022/03/15 06:05:27;;;;;;;5.20;1.88;;;19.30;65.30;;;;;;5003403;28;20373;-71
2022/03/15 06:07:54;;;;;;;6.15;1.90;;;19.30;65.30;;;;;;5009426;28;20571;-71
2022/03/15 06:10:23;;;;;;;8.52;1.80;;;19.30;65.30;;;;;;5008608;28;20021;-71
2022/03/15 06:12:51;;;;;;;4.60;1.73;;;19.30;65.30;;;;;;5009359;28;20037;-71
2022/03/15 06:15:18;;;;;;;4.20;1.73;;;19.40;65.30;;;;;;5008880;28;20045;-71
2022/03/15 06:17:56;;;;;;;6.90;1.75;;;19.40;65.30;;;;;;5006153;28;20057;-72
2022/03/15 06:20:24;;;;;;;11.13;3.08;;;19.40;65.30;;;;;;5013246;28;20595;-72
2022/03/15 06:22:51;;;;;;;7.47;1.52;;;19.40;65.50;;;;;;5008023;28;20564;-71
2022/03/15 06:25:17;;;;;;;4.47;1.65;;;19.50;65.70;;;;;;5011319;28;20110;-71
2022/03/15 06:27:44;;;;;;;4.65;1.45;;;19.50;65.60;;;;;;5008804;28;20022;-71
2022/03/15 06:30:12;;;;;;;5.93;1.30;;;19.50;65.50;;;;;;5009275;28;20014;-71
2022/03/15 06:32:39;;;;;;;7.55;1.27;;;19.60;65.20;;;;;;5004228;28;20017;-72
2022/03/15 06:35:07;;;;;;;4.45;1.20;;;19.60;64.50;;;;;;5008733;28;20030;-71
2022/03/15 06:37:37;;;;;;;2.55;1.10;;;19.60;64.10;;;;;;5008550;28;20031;-71
2022/03/15 06:40:05;;;;;;;17.55;1.27;;;19.70;63.80;;;;;;5010020;28;20436;-71
2022/03/15 06:42:31;;;;;;;7.45;1.55;;;19.70;63.70;;;;;;5007035;28;20062;-71
2022/03/15 06:44:58;;;;;;;6.22;1.00;;;19.70;63.60;;;;;;5011239;28;20057;-71
2022/03/15 06:47:24;;;;;;;7.50;1.45;;;19.70;63.40;;;;;;5005650;28;20033;-71
2022/03/15 06:49:51;;;;;;;6.85;1.20;;;19.70;63.20;;;;;;5002564;28;20058;-71
2022/03/15 06:52:18;;;;;;;9.25;1.48;;;19.70;62.90;;;;;;5010168;28;20018;-71
2022/03/15 06:54:45;;;;;;;8.32;1.45;;;19.80;62.80;;;;;;5007978;28;20034;-71
2022/03/15 06:57:13;;;;;;;14.43;1.58;;;19.80;62.60;;;;;;5006616;28;20028;-71
2022/03/15 06:59:39;;;;;;;2.70;0.93;;;19.80;62.30;;;;;;5009366;28;20057;-71
2022/03/15 07:02:06;;;;;;;5.47;1.17;;;19.90;62.30;;;;;;5007630;28;20072;-71
2022/03/15 07:04:32;;;;;;;5.15;1.92;;;19.90;62.00;;;;;;5009980;28;20022;-71
2022/03/15 15:15:00;;;;;;;17.05;2.08;;;24.90;58.40;;;;;;5019626;28;20111;-71
2022/03/15 15:17:30;;;;;;;4.93;1.10;;;24.80;58.00;;;;;;5023973;28;20094;-72
2022/03/15 15:19:57;;;;;;;7.35;1.38;;;24.80;58.00;;;;;;5029187;28;20515;-74
2022/03/15 15:22:25;;;;;;;9.05;1.45;;;24.80;58.00;;;;;;5027428;28;20026;-75
2022/03/15 15:24:55;;;;;;;6.28;1.25;;;24.80;58.20;;;;;;5026523;28;20461;-72
2022/03/15 15:27:24;;;;;;;6.35;1.30;;;24.80;58.20;;;;;;5029704;28;20095;-72
2022/03/15 15:29:52;;;;;;;19.85;4.38;;;24.70;58.10;;;;;;5029200;28;20025;-71
2022/03/15 15:32:19;;;;;;;15.00;3.00;;;24.70;58.50;;;;;;5025286;28;20100;-70
2022/03/15 15:34:50;;;;;;;23.30;5.93;;;24.70;59.00;;;;;;5023121;28;20022;-72
2022/03/15 15:37:18;;;;;;;17.55;5.13;;;24.60;59.50;;;;;;5024456;28;20034;-72
2022/03/15 15:39:46;;;;;;;11.18;3.83;;;24.60;59.80;;;;;;5029495;28;20017;-72
2022/03/15 15:42:15;;;;;;;8.15;3.40;;;24.60;59.80;;;;;;5024123;28;20195;-72
2022/03/15 15:44:44;;;;;;;4.80;1.95;;;24.50;59.70;;;;;;5027559;28;20021;-72
2022/03/15 15:47:11;;;;;;;11.82;1.92;;;24.50;60.00;;;;;;5024932;28;20026;-71
2022/03/15 15:49:37;;;;;;;11.80;2.03;;;24.40;60.00;;;;;;5028376;28;20593;-72
2022/03/15 15:52:04;;;;;;;6.65;1.40;;;24.40;60.20;;;;;;5027902;28;20101;-73
2022/03/15 15:54:31;;;;;;;13.15;3.05;;;24.40;60.30;;;;;;5027003;28;20396;-72
2022/03/15 15:56:58;;;;;;;5.68;2.90;;;24.40;60.40;;;;;;5025190;28;20080;-71
2022/03/15 15:59:29;;;;;;;9.05;3.10;;;24.30;60.70;;;;;;5023264;28;20048;-70
2022/03/15 16:01:55;;;;;;;12.60;3.75;;;24.30;61.10;;;;;;5027911;28;20034;-71
2022/03/15 16:04:22;;;;;;;10.95;2.13;;;24.30;61.30;;;;;;5023276;28;20037;-75
2022/03/15 16:06:49;;;;;;;6.07;1.30;;;24.20;61.50;;;;;;5032855;28;20017;-72
2022/03/15 16:09:20;;;;;;;6.35;1.30;;;24.20;61.60;;;;;;5028694;28;20040;-73
2022/03/15 16:11:47;;;;;;;3.13;1.40;;;24.20;61.80;;;;;;5026028;28;20397;-72
2022/03/15 16:14:14;;;;;;;4.10;1.13;;;24.20;61.90;;;;;;5026391;28;20455;-72
2022/03/15 16:16:42;;;;;;;3.17;1.10;;;24.20;62.00;;;;;;5023305;28;20814;-72
2022/03/15 16:19:09;;;;;;;7.88;1.48;;;24.10;62.00;;;;;;5030150;28;20024;-71
2022/03/15 16:21:37;;;;;;;6.72;1.25;;;24.10;62.20;;;;;;5027073;28;20072;-72
2022/03/15 16:24:05;;;;;;;6.53;1.40;;;24.10;62.40;;;;;;5028835;28;20025;-72
2022/03/15 16:26:32;;;;;;;5.18;0.88;;;24.10;62.50;;;;;;5022827;28;20076;-70
2022/03/15 16:28:59;;;;;;;2.63;0.90;;;24.10;62.50;;;;;;5032530;28;20021;-72
2022/03/15 16:31:29;;;;;;;2.63;1.00;;;24.10;62.60;;;;;;5026367;28;20484;-74
2022/03/15 16:33:57;;;;;;;6.68;1.20;;;24.10;62.70;;;;;;5023950;28;20071;-72
2022/03/15 16:36:25;;;;;;;4.50;1.10;;;24.10;62.80;;;;;;5023033;28;20033;-72
2022/03/15 16:38:51;;;;;;;6.90;1.08;;;24.10;63.00;;;;;;5026449;28;20053;-71
2022/03/15 16:41:18;;;;;;;8.85;1.75;;;24.10;63.10;;;;;;5026447;28;20500;-72
2022/03/15 16:43:44;;;;;;;9.32;1.52;;;24.00;63.00;;;;;;5022351;28;20064;-73
2022/03/15 16:46:11;;;;;;;5.43;1.50;;;24.00;63.50;;;;;;5030224;28;20485;-71
2022/03/15 16:48:37;;;;;;;24.05;1.50;;;24.00;63.90;;;;;;5026790;28;20044;-72
2022/03/15 16:51:04;;;;;;;32.42;10.55;;;23.90;64.00;;;;;;5023885;28;20029;-72
2022/03/15 16:53:31;;;;;;;21.70;10.02;;;23.80;64.00;;;;;;5014971;28;20103;-73
2022/03/15 16:55:58;;;;;;;15.18;3.85;;;23.80;64.10;;;;;;5023991;28;20047;-75
2022/03/15 17:01:09;;;;;;;9.47;2.03;;;23.80;63.60;;;;;;5026514;28;20037;-74
2022/03/15 17:06:20;;;;;;;29.03;3.40;;;23.70;64.20;;;;;;5026634;28;20136;-74
2022/03/15 17:08:46;;;;;;;19.58;2.67;;;23.70;64.00;;;;;;5024519;28;20026;-74
2022/03/15 17:11:13;;;;;;;14.63;3.20;;;23.70;64.00;;;;;;5025257;28;20021;-73
2022/03/15 17:13:42;;;;;;;22.17;2.13;;;23.70;64.10;;;;;;5022735;28;20045;-72
2022/03/15 17:16:16;;;;;;;4.88;1.17;;;23.70;63.90;;;;;;5022040;28;20037;-74
2022/03/15 17:18:45;;;;;;;6.53;1.50;;;23.60;63.90;;;;;;5023795;28;20037;-75
2022/03/15 17:21:15;;;;;;;13.65;1.85;;;23.70;63.90;;;;;;5027667;28;20018;-73
2022/03/15 17:23:46;;;;;;;6.88;1.08;;;23.60;63.50;;;;;;5027769;28;20028;-74
2022/03/15 17:26:16;;;;;;;7.22;1.20;;;23.60;63.90;;;;;;5025148;28;20048;-72
2022/03/15 17:28:43;;;;;;;5.22;1.55;;;23.60;63.90;;;;;;5028463;28;20026;-86
2022/03/15 17:31:16;;;;;;;5.63;1.50;;;23.60;63.70;;;;;;5027211;28;20048;-73
2022/03/15 17:33:43;;;;;;;28.13;3.45;;;23.60;64.20;;;;;;5028681;28;20035;-73
2022/03/15 17:36:13;;;;;;;12.20;2.35;;;23.60;64.20;;;;;;5025741;28;20026;-77
2022/03/15 17:38:47;;;;;;;10.23;2.50;;;23.60;64.20;;;;;;5022842;28;20056;-75
2022/03/15 17:41:16;;;;;;;9.25;1.83;;;23.50;64.40;;;;;;5025452;28;20120;-71
2022/03/15 17:43:55;;;;;;;9.98;2.00;;;23.50;64.50;;;;;;5023317;28;20075;-72
2022/03/15 17:46:26;;;;;;;6.90;1.35;;;23.50;64.80;;;;;;5025724;28;20018;-74
2022/03/15 17:48:58;;;;;;;5.15;1.35;;;23.50;64.90;;;;;;5023767;28;20030;-73
2022/03/15 17:51:25;;;;;;;3.42;1.48;;;23.50;65.00;;;;;;5024817;28;20132;-76
2022/03/15 17:53:54;;;;;;;6.45;1.60;;;23.40;65.10;;;;;;5023813;28;20097;-77
2022/03/15 17:56:21;;;;;;;5.45;1.38;;;23.40;65.20;;;;;;5022077;28;20037;-73
2022/03/15 17:58:50;;;;;;;7.28;1.73;;;23.40;65.30;;;;;;5023190;28;20083;-74
2022/03/15 18:01:16;;;;;;;2.78;1.30;;;23.40;65.50;;;;;;5045610;28;20396;-79
2022/03/15 18:03:43;;;;;;;4.65;1.17;;;23.40;65.50;;;;;;5024319;28;20014;-74
2022/03/15 18:06:13;;;;;;;6.60;1.77;;;23.40;65.60;;;;;;5029097;28;20033;-79
2022/03/15 18:08:39;;;;;;;8.90;1.50;;;23.30;65.60;;;;;;5031260;28;20022;-77
2022/03/15 18:11:06;;;;;;;9.05;2.72;;;23.30;65.90;;;;;;5026470;28;20029;-73
2022/03/15 18:13:35;;;;;;;15.60;11.30;;;23.30;66.10;;;;;;5029716;28;20546;-74
2022/03/15 18:16:04;;;;;;;11.52;6.57;;;23.30;66.20;;;;;;5028257;28;20030;-74
2022/03/15 18:18:31;;;;;;;7.35;4.15;;;23.30;66.20;;;;;;5016387;28;20029;-77
2022/03/15 18:21:00;;;;;;;8.75;3.15;;;23.30;66.30;;;;;;5023931;28;20026;-73
2022/03/15 18:23:29;;;;;;;6.70;2.83;;;23.30;66.50;;;;;;5028644;28;20036;-74
2022/03/15 18:25:59;;;;;;;6.50;1.90;;;23.30;66.30;;;;;;5026134;28;20819;-75
2022/03/15 18:28:26;;;;;;;3.22;2.25;;;23.30;66.50;;;;;;5031238;28;20017;-76
2022/03/15 18:30:53;;;;;;;7.57;1.77;;;23.20;66.50;;;;;;5024625;28;20612;-73
2022/03/15 18:33:24;;;;;;;8.73;2.03;;;23.20;66.60;;;;;;5030256;28;20014;-74
2022/03/15 18:35:52;;;;;;;8.88;2.17;;;23.20;66.70;;;;;;5025464;28;20034;-75
2022/03/15 18:38:20;;;;;;;8.63;2.47;;;23.30;66.90;;;;;;5028824;28;20075;-74
2022/03/15 18:40:48;;;;;;;10.98;2.60;;;23.20;66.90;;;;;;5025889;28;20048;-74
2022/03/15 18:43:17;;;;;;;13.73;2.08;;;23.20;66.80;;;;;;5026972;28;20026;-73
2022/03/15 18:45:50;;;;;;;7.13;1.98;;;23.20;66.80;;;;;;5027719;28;20033;-76
2022/03/15 18:48:19;;;;;;;8.80;1.48;;;23.20;66.70;;;;;;5019093;28;20380;-72
2022/03/15 18:50:47;;;;;;;5.82;1.60;;;23.20;66.60;;;;;;5023093;28;20021;-71
2022/03/15 18:53:15;;;;;;;5.10;1.65;;;23.10;66.50;;;;;;5021581;28;20472;-72
2022/03/15 18:55:44;;;;;;;29.13;4.88;;;23.10;66.60;;;;;;5025935;28;20041;-72
2022/03/15 18:58:15;;;;;;;21.05;8.27;;;23.10;66.70;;;;;;5035022;28;20028;-72
2022/03/15 19:00:51;;;;;;;15.80;5.00;;;23.10;66.90;;;;;;5022113;28;20033;-74
2022/03/15 19:03:23;;;;;;;12.63;3.45;;;23.10;66.70;;;;;;5021105;28;20037;-72
2022/03/15 19:05:54;;;;;;;9.20;2.42;;;23.10;66.30;;;;;;5031027;28;20029;-72
2022/03/15 19:08:23;;;;;;;6.38;2.47;;;23.00;66.10;;;;;;5032548;28;20439;-73
2022/03/15 19:10:50;;;;;;;10.02;2.58;;;23.00;66.00;;;;;;5027404;28;20087;-72
2022/03/15 19:13:18;;;;;;;15.15;1.70;;;23.00;66.10;;;;;;5020495;28;20419;-74
2022/03/15 19:15:46;;;;;;;17.17;3.05;;;23.00;66.40;;;;;;5016206;28;20502;-75
2022/03/15 19:18:15;;;;;;;9.77;2.35;;;23.00;66.60;;;;;;5023703;28;20018;-74
2022/03/15 19:20:43;;;;;;;9.73;1.65;;;22.90;66.50;;;;;;5029359;28;20035;-74
2022/03/15 19:23:16;;;;;;;10.10;1.70;;;22.90;66.50;;;;;;5022833;28;20473;-75
2022/03/15 19:25:44;;;;;;;5.45;2.13;;;22.90;66.50;;;;;;5026467;28;20488;-74
2022/03/15 19:28:14;;;;;;;8.02;1.60;;;22.90;66.60;;;;;;5021264;28;20617;-72
2022/03/15 19:30:45;;;;;;;7.80;1.77;;;22.90;66.70;;;;;;5022107;28;20071;-72
2022/03/15 19:33:13;;;;;;;23.17;8.05;;;22.80;66.90;;;;;;5022387;28;20033;-73
2022/03/15 19:35:40;;;;;;;22.17;9.82;;;22.80;67.80;;;;;;5023178;28;20030;-75
2022/03/15 19:38:11;;;;;;;22.88;6.82;;;22.80;68.30;;;;;;5018596;28;20093;-73
2022/03/15 19:40:40;;;;;;;18.95;5.88;;;22.80;69.10;;;;;;5023209;28;20156;-72
2022/03/15 19:43:08;;;;;;;17.98;3.05;;;22.80;69.40;;;;;;5019281;28;20025;-72
2022/03/15 19:45:37;;;;;;;11.55;2.92;;;22.80;69.20;;;;;;5019863;28;20390;-73
2022/03/15 19:48:13;;;;;;;20.05;2.97;;;22.80;68.90;;;;;;5017944;28;20032;-75
2022/03/15 19:50:40;;;;;;;11.90;2.55;;;22.80;69.10;;;;;;5022199;28;20032;-73
2022/03/15 19:53:07;;;;;;;6.68;2.00;;;22.80;69.20;;;;;;5021061;28;20033;-72
2022/03/15 19:55:36;;;;;;;13.48;1.85;;;22.80;69.10;;;;;;5018988;28;20033;-73
2022/03/15 19:58:03;;;;;;;7.65;1.60;;;22.80;68.90;;;;;;5016368;28;20025;-75
2022/03/15 20:00:30;;;;;;;6.47;2.33;;;22.80;69.50;;;;;;5021706;28;20017;-76
2022/03/15 20:02:56;;;;;;;6.38;1.50;;;22.80;68.90;;;;;;5018927;28;20370;-73
2022/03/15 20:05:23;;;;;;;4.53;1.88;;;22.80;68.90;;;;;;5018255;28;20017;-71
2022/03/15 20:07:53;;;;;;;4.20;1.70;;;22.80;68.90;;;;;;5020409;28;20028;-71
2022/03/15 20:10:28;;;;;;;6.15;2.22;;;22.80;69.00;;;;;;5018153;28;20033;-71
2022/03/15 20:12:58;;;;;;;5.35;1.48;;;22.80;69.00;;;;;;5022618;28;20472;-73
2022/03/15 20:15:37;;;;;;;5.43;1.38;;;22.70;69.00;;;;;;5028111;28;20029;-73
2022/03/15 20:18:08;;;;;;;5.28;1.35;;;22.70;69.00;;;;;;5026589;28;20101;-71
2022/03/15 20:20:39;;;;;;;9.85;2.05;;;22.70;69.00;;;;;;5031146;28;20103;-73
2022/03/15 20:23:11;;;;;;;6.13;2.67;;;22.70;69.10;;;;;;5020259;28;20117;-75
2022/03/15 20:25:40;;;;;;;10.88;2.95;;;22.70;69.10;;;;;;5023119;28;20156;-72
2022/03/15 20:28:07;;;;;;;17.17;10.02;;;22.70;69.20;;;;;;5024792;28;20036;-74
2022/03/15 20:30:36;;;;;;;16.65;6.95;;;22.70;69.30;;;;;;5030205;28;20024;-73
2022/03/15 20:33:07;;;;;;;8.18;3.85;;;22.70;69.30;;;;;;5026035;28;20090;-72
2022/03/15 20:35:36;;;;;;;6.85;2.50;;;22.70;69.40;;;;;;5027242;28;20052;-72
2022/03/15 20:38:09;;;;;;;6.30;2.75;;;22.60;69.30;;;;;;5024462;28;20108;-72
2022/03/15 20:40:40;;;;;;;5.43;1.58;;;22.60;69.30;;;;;;5008354;28;20444;-75
2022/03/15 20:45:52;;;;;;;10.57;1.85;;;22.60;69.10;;;;;;5028150;28;20064;-73
2022/03/15 20:48:20;;;;;;;8.27;1.70;;;22.60;69.20;;;;;;5025469;28;20073;-73
2022/03/15 20:50:48;;;;;;;11.43;2.10;;;22.60;69.20;;;;;;5026215;28;20037;-73
2022/03/15 20:53:20;;;;;;;9.10;2.15;;;22.60;69.20;;;;;;5024187;28;20014;-74
2022/03/15 20:55:47;;;;;;;6.60;2.00;;;22.60;69.30;;;;;;5021359;28;20419;-73
2022/03/15 20:58:18;;;;;;;8.05;1.52;;;22.60;69.30;;;;;;5022542;28;20133;-73
2022/03/15 21:00:47;;;;;;;9.18;2.10;;;22.50;69.30;;;;;;5030939;28;20025;-73
2022/03/15 21:03:18;;;;;;;6.35;1.85;;;22.60;69.30;;;;;;5020311;28;20018;-72